Time;durP1;ratioP1;P1;durP2;ratioP2;P2;SDS_P1;SDS_P2;PMS_P1;PMS_P2;Temp;Humidity;BMP_temperature;BMP_pressure;BME280_temperature;BME280_humidity;BME280_pressure;Samples;Min_cycle;Max_cycle;Signal;HPM_P1;HPM_P2
2023/01/21 00:00:53;;;;;;;3.58;1.98;;;3.50;99.90;;;;;;4979117;28;20137;-84
2023/01/21 00:03:20;;;;;;;4.13;2.05;;;3.50;99.90;;;;;;4976327;28;20054;-84
2023/01/21 00:05:47;;;;;;;4.13;2.08;;;3.40;99.90;;;;;;4962701;28;20050;-84
2023/01/21 00:08:14;;;;;;;4.53;2.08;;;3.40;99.90;;;;;;4967324;28;20050;-84
2023/01/21 00:10:41;;;;;;;2.90;1.73;;;3.40;99.90;;;;;;4946536;28;20459;-84
2023/01/21 00:13:08;;;;;;;4.00;1.92;;;3.40;99.90;;;;;;4964069;28;20053;-85
2023/01/21 00:15:35;;;;;;;2.35;1.63;;;3.40;99.90;;;;;;4963316;28;20050;-83
2023/01/21 00:18:02;;;;;;;2.05;1.38;;;3.40;99.90;;;;;;4960413;28;20059;-84
2023/01/21 00:20:29;;;;;;;3.08;1.60;;;3.40;99.90;;;;;;4977801;28;20151;-84
2023/01/21 00:22:56;;;;;;;3.28;1.48;;;3.40;99.90;;;;;;4981304;28;20095;-84
2023/01/21 00:25:24;;;;;;;2.55;1.48;;;3.40;99.90;;;;;;4976838;28;20053;-84
2023/01/21 00:27:51;;;;;;;2.83;1.55;;;3.40;99.90;;;;;;4979492;28;20050;-84
2023/01/21 00:30:18;;;;;;;3.72;2.10;;;3.40;99.90;;;;;;4964124;28;20054;-84
2023/01/21 00:32:46;;;;;;;4.95;2.05;;;3.40;99.90;;;;;;4978105;28;20122;-84
2023/01/21 00:35:15;;;;;;;3.25;1.40;;;3.40;99.90;;;;;;4979910;28;20327;-84
2023/01/21 00:37:41;;;;;;;2.28;1.45;;;3.40;99.90;;;;;;4995747;28;20157;-84
2023/01/21 00:40:09;;;;;;;2.70;1.42;;;3.40;99.90;;;;;;4963874;28;20379;-84
2023/01/21 00:42:36;;;;;;;2.50;1.55;;;3.40;99.90;;;;;;4978656;28;20117;-84
2023/01/21 00:45:03;;;;;;;1.83;1.20;;;3.40;99.90;;;;;;4951460;28;20169;-82
2023/01/21 00:47:30;;;;;;;2.45;1.23;;;3.40;99.90;;;;;;4963447;28;20124;-84
2023/01/21 00:49:57;;;;;;;1.75;1.40;;;3.30;99.90;;;;;;4947129;28;20046;-84
2023/01/21 00:52:26;;;;;;;2.78;1.58;;;3.40;99.90;;;;;;4947646;28;20077;-84
2023/01/21 00:54:53;;;;;;;2.67;1.48;;;3.40;99.90;;;;;;4932009;28;20414;-83
2023/01/21 00:57:20;;;;;;;2.53;1.52;;;3.40;99.90;;;;;;4939264;28;20058;-84
2023/01/21 00:59:47;;;;;;;2.08;1.05;;;3.40;99.90;;;;;;4927828;28;20473;-84
2023/01/21 01:02:14;;;;;;;2.50;1.20;;;3.40;99.90;;;;;;4946289;28;20410;-83
2023/01/21 01:04:41;;;;;;;1.83;1.08;;;3.50;99.90;;;;;;4930551;28;20062;-83
2023/01/21 01:07:09;;;;;;;2.35;1.27;;;3.50;99.90;;;;;;4932118;28;20149;-84
2023/01/21 01:09:36;;;;;;;2.88;1.20;;;3.50;99.90;;;;;;4941997;29;20240;-84
2023/01/21 01:12:03;;;;;;;1.98;1.20;;;3.50;99.90;;;;;;4930273;28;20078;-85
2023/01/21 01:14:31;;;;;;;1.35;0.98;;;3.50;99.90;;;;;;4927872;29;20126;-84
2023/01/21 01:16:59;;;;;;;1.40;1.00;;;3.50;99.90;;;;;;4943970;28;20086;-84
2023/01/21 01:19:28;;;;;;;1.30;0.80;;;3.60;99.90;;;;;;4942857;28;20472;-84
2023/01/21 01:21:55;;;;;;;3.00;1.65;;;3.60;99.90;;;;;;4962643;28;20507;-85
2023/01/21 01:24:22;;;;;;;1.77;1.23;;;3.50;99.90;;;;;;4927157;29;20051;-84
2023/01/21 01:26:49;;;;;;;1.98;1.10;;;3.50;99.90;;;;;;4911586;29;20058;-83
2023/01/21 01:29:17;;;;;;;1.77;1.20;;;3.50;99.90;;;;;;4928411;29;20179;-84
2023/01/21 01:31:44;;;;;;;1.92;0.95;;;3.50;99.90;;;;;;4942867;28;20051;-85
2023/01/21 01:34:11;;;;;;;1.73;0.82;;;3.60;99.90;;;;;;4919073;28;20220;-85
2023/01/21 01:36:38;;;;;;;0.93;0.85;;;3.60;99.90;;;;;;4946929;28;20148;-85
2023/01/21 01:39:05;;;;;;;1.88;1.08;;;3.60;99.90;;;;;;4931849;28;20065;-85
2023/01/21 01:41:33;;;;;;;1.27;0.93;;;3.60;99.90;;;;;;4931678;28;20057;-85
2023/01/21 01:44:42;;;;;;;1.65;1.23;;;3.50;99.90;;;;;;4931334;28;20077;-85
2023/01/21 01:47:09;;;;;;;1.50;1.00;;;3.40;99.90;;;;;;4963998;28;20240;-85
2023/01/21 01:49:36;;;;;;;1.67;1.35;;;3.40;99.90;;;;;;4965432;28;20062;-85
2023/01/21 01:52:03;;;;;;;1.42;1.10;;;3.30;99.90;;;;;;4966488;28;20458;-85
2023/01/21 01:54:54;;;;;;;0.75;0.63;;;3.30;99.90;;;;;;4965013;28;20061;-85
2023/01/21 01:57:24;;;;;;;1.77;1.20;;;3.30;99.90;;;;;;4978839;28;20051;-85
2023/01/21 01:59:51;;;;;;;1.50;0.95;;;3.30;99.90;;;;;;4963004;28;20120;-85
2023/01/21 02:02:18;;;;;;;1.30;0.90;;;3.30;99.90;;;;;;4979277;28;20148;-84
2023/01/21 02:04:57;;;;;;;2.22;1.10;;;3.30;99.90;;;;;;4949076;28;20422;-85
2023/01/21 02:07:24;;;;;;;1.02;0.77;;;3.30;99.90;;;;;;4962469;28;20088;-85
2023/01/21 02:09:52;;;;;;;1.75;1.13;;;3.30;99.90;;;;;;4968431;28;20138;-84
2023/01/21 02:12:19;;;;;;;1.98;1.13;;;3.30;99.90;;;;;;4981951;28;20137;-85
2023/01/21 02:14:46;;;;;;;1.75;1.05;;;3.20;99.90;;;;;;4981392;28;20148;-84
2023/01/21 02:17:20;;;;;;;1.30;1.00;;;3.20;99.90;;;;;;4981826;28;20137;-85
2023/01/21 02:20:02;;;;;;;1.23;0.85;;;3.10;99.90;;;;;;4982879;28;20141;-84
2023/01/21 02:22:41;;;;;;;1.70;1.00;;;3.00;99.90;;;;;;4981239;28;20046;-84
2023/01/21 02:25:40;;;;;;;1.67;1.00;;;2.90;99.90;;;;;;4976278;28;20085;-84
2023/01/21 02:28:36;;;;;;;1.77;1.05;;;2.80;99.90;;;;;;4941690;28;20089;-85
2023/01/21 02:31:29;;;;;;;1.33;1.00;;;2.80;99.90;;;;;;4982873;28;20057;-83
2023/01/21 02:34:26;;;;;;;1.92;1.00;;;2.70;99.90;;;;;;4981080;28;20110;-83
2023/01/21 02:37:18;;;;;;;1.27;0.90;;;2.60;99.90;;;;;;4979322;28;20548;-84
2023/01/21 02:39:51;;;;;;;2.22;1.45;;;2.40;99.90;;;;;;4968347;28;20142;-84
2023/01/21 02:42:43;;;;;;;2.80;1.50;;;2.30;99.90;;;;;;4968877;28;20046;-83
2023/01/21 02:45:13;;;;;;;1.40;1.00;;;2.30;99.90;;;;;;4948668;28;20106;-83
2023/01/21 02:47:49;;;;;;;1.45;1.20;;;2.10;99.90;;;;;;4985066;28;20058;-84
2023/01/21 02:50:25;;;;;;;2.40;1.42;;;2.00;99.90;;;;;;4987605;28;20168;-84
2023/01/21 02:52:59;;;;;;;1.35;1.02;;;1.90;99.90;;;;;;4967122;28;20055;-85
2023/01/21 02:55:36;;;;;;;2.67;1.30;;;1.90;99.90;;;;;;4990836;28;20481;-85
2023/01/21 02:58:06;;;;;;;2.00;1.20;;;1.80;99.90;;;;;;4963055;28;20382;-84
2023/01/21 03:01:01;;;;;;;2.20;0.88;;;1.80;99.90;;;;;;4986536;28;20137;-82
2023/01/21 03:03:34;;;;;;;2.22;1.38;;;1.70;99.90;;;;;;4978448;28;20089;-83
2023/01/21 03:06:09;;;;;;;2.00;1.13;;;1.60;99.90;;;;;;4983324;28;20474;-84
2023/01/21 03:08:41;;;;;;;2.63;1.33;;;1.50;99.90;;;;;;4986966;28;20830;-84
2023/01/21 03:11:15;;;;;;;2.40;1.50;;;1.40;99.90;;;;;;4969287;28;20050;-84
2023/01/21 03:16:57;;;;;;;1.77;1.10;;;1.30;99.90;;;;;;4966015;28;20074;-84
2023/01/21 03:19:39;;;;;;;1.83;0.98;;;1.20;99.90;;;;;;4950230;28;20162;-84
2023/01/21 03:22:09;;;;;;;1.38;1.00;;;1.20;99.90;;;;;;4950856;28;20051;-84
2023/01/21 03:24:36;;;;;;;1.75;1.40;;;1.10;99.90;;;;;;4969034;28;20098;-84
2023/01/21 03:27:03;;;;;;;1.58;1.35;;;1.10;99.90;;;;;;4983994;28;20463;-85
2023/01/21 03:29:30;;;;;;;1.05;0.95;;;1.00;99.90;;;;;;4986074;28;20046;-85
2023/01/21 03:32:02;;;;;;;2.15;1.17;;;1.00;99.90;;;;;;4967962;28;20128;-84
2023/01/21 03:34:31;;;;;;;2.35;1.52;;;1.00;99.90;;;;;;4984142;28;20125;-84
2023/01/21 03:37:17;;;;;;;1.92;1.10;;;0.90;99.90;;;;;;4969530;28;20091;-84
2023/01/21 03:39:46;;;;;;;2.13;1.33;;;0.90;99.90;;;;;;4970222;28;20509;-81
2023/01/21 03:42:13;;;;;;;1.92;1.50;;;0.80;99.90;;;;;;4970231;28;20439;-84
2023/01/21 03:44:40;;;;;;;2.35;1.40;;;0.80;99.90;;;;;;4961339;28;20517;-84
2023/01/21 03:47:30;;;;;;;1.58;1.20;;;0.80;99.90;;;;;;4950710;28;20050;-84
2023/01/21 03:50:06;;;;;;;2.47;1.60;;;0.70;99.90;;;;;;4918219;29;20063;-84
2023/01/21 03:52:33;;;;;;;1.88;1.30;;;0.70;99.90;;;;;;4917473;28;20154;-84
2023/01/21 03:55:00;;;;;;;2.42;1.40;;;0.70;99.90;;;;;;4922050;29;20062;-84
2023/01/21 03:57:26;;;;;;;1.88;1.27;;;0.60;99.90;;;;;;4947019;29;20074;-84
2023/01/21 03:59:53;;;;;;;1.67;1.10;;;0.60;99.90;;;;;;4963328;28;20055;-84
2023/01/21 04:02:20;;;;;;;2.22;1.40;;;0.50;99.90;;;;;;4962702;28;20143;-84
2023/01/21 04:04:47;;;;;;;2.40;1.27;;;0.60;99.90;;;;;;4929498;29;20138;-83
2023/01/21 04:07:14;;;;;;;2.22;1.58;;;0.60;99.90;;;;;;4931076;29;20082;-84
2023/01/21 04:09:41;;;;;;;1.80;1.40;;;0.60;99.90;;;;;;4914663;29;20146;-84
2023/01/21 04:12:08;;;;;;;2.20;1.40;;;0.50;99.90;;;;;;4915579;28;20047;-84
2023/01/21 04:14:35;;;;;;;2.38;1.60;;;0.50;99.90;;;;;;4950369;28;20082;-82
2023/01/21 04:17:01;;;;;;;1.70;1.30;;;0.40;99.90;;;;;;4933298;28;20047;-84
2023/01/21 04:19:28;;;;;;;1.45;1.17;;;0.40;99.90;;;;;;4948570;28;20086;-84
2023/01/21 04:27:24;;;;;;;1.83;1.30;;;0.30;99.90;;;;;;4946483;29;20081;-88
2023/01/21 04:29:51;;;;;;;1.88;1.30;;;0.20;99.90;;;;;;4931776;29;20102;-88
2023/01/21 04:32:18;;;;;;;2.63;1.58;;;0.20;99.90;;;;;;4931256;29;20447;-89
2023/01/21 04:34:44;;;;;;;2.65;1.67;;;0.20;99.90;;;;;;4931593;29;20149;-88
2023/01/21 04:37:12;;;;;;;2.28;1.35;;;0.20;99.90;;;;;;4915527;29;20683;-88
2023/01/21 04:39:38;;;;;;;2.53;1.67;;;0.10;99.90;;;;;;4915531;29;20235;-89
2023/01/21 04:42:05;;;;;;;2.25;1.50;;;0.10;99.90;;;;;;4915610;29;20185;-87
2023/01/21 04:44:32;;;;;;;2.20;1.48;;;0.10;99.90;;;;;;4909855;29;20043;-90
2023/01/21 04:46:59;;;;;;;2.25;1.67;;;0.10;99.90;;;;;;4915573;29;20087;-88
2023/01/21 04:49:26;;;;;;;2.13;1.35;;;0.00;99.90;;;;;;4943518;29;20473;-87
2023/01/21 04:51:53;;;;;;;2.28;1.52;;;0.10;99.90;;;;;;4914309;29;20083;-88
2023/01/21 04:54:20;;;;;;;2.53;1.30;;;0.00;99.90;;;;;;4930495;29;20043;-87
2023/01/21 04:56:47;;;;;;;2.45;1.55;;;0.00;99.90;;;;;;4916706;29;20079;-89
2023/01/21 04:59:14;;;;;;;2.63;1.58;;;0.00;99.90;;;;;;4917214;29;20463;-89
2023/01/21 05:01:41;;;;;;;2.63;1.80;;;0.00;99.90;;;;;;4916328;29;20048;-88
2023/01/21 05:04:08;;;;;;;3.10;1.88;;;0.00;99.90;;;;;;4911978;29;20055;-90
2023/01/21 05:06:34;;;;;;;1.50;1.20;;;-0.10;99.90;;;;;;4927954;29;20120;-91
2023/01/21 05:09:01;;;;;;;2.22;1.40;;;-0.10;99.90;;;;;;4929467;29;20051;-90
2023/01/21 05:11:28;;;;;;;2.20;1.45;;;-0.10;99.90;;;;;;4945108;29;20071;-91
2023/01/21 05:13:55;;;;;;;1.85;1.38;;;-0.20;99.90;;;;;;4924001;29;20110;-90
2023/01/21 05:16:22;;;;;;;2.13;1.40;;;-0.20;99.90;;;;;;4929876;29;20051;-90
2023/01/21 05:18:49;;;;;;;2.40;1.85;;;-0.20;99.90;;;;;;4928672;29;20479;-90
2023/01/21 05:21:16;;;;;;;3.10;1.60;;;-0.20;99.90;;;;;;4928950;29;20123;-89
2023/01/21 05:23:43;;;;;;;2.80;2.10;;;-0.20;99.90;;;;;;4927814;29;20047;-88
2023/01/21 05:26:10;;;;;;;2.47;1.50;;;-0.30;99.90;;;;;;4951499;28;20434;-90
2023/01/21 05:28:38;;;;;;;2.22;1.48;;;-0.30;99.90;;;;;;4966688;28;20059;-87
2023/01/21 05:31:05;;;;;;;2.13;1.55;;;-0.30;99.90;;;;;;4950151;29;20055;-88
2023/01/21 05:33:32;;;;;;;1.95;1.50;;;-0.30;99.90;;;;;;4952628;28;20051;-87
2023/01/21 05:35:59;;;;;;;2.80;1.58;;;-0.30;99.90;;;;;;4952351;28;20150;-89
2023/01/21 05:38:27;;;;;;;2.00;1.52;;;-0.30;99.90;;;;;;4953007;28;20058;-87
2023/01/21 05:40:58;;;;;;;1.92;1.30;;;-0.30;99.90;;;;;;4948952;29;20105;-86
2023/01/21 05:43:25;;;;;;;2.65;1.50;;;-0.40;99.90;;;;;;4951832;28;20043;-88
2023/01/21 05:45:52;;;;;;;2.58;1.58;;;-0.40;99.90;;;;;;4950552;28;20092;-88
2023/01/21 05:48:19;;;;;;;2.38;1.42;;;-0.50;99.90;;;;;;4936997;28;20223;-90
2023/01/21 05:50:46;;;;;;;1.95;1.40;;;-0.50;99.90;;;;;;4951253;28;20153;-88
2023/01/21 05:53:14;;;;;;;2.00;1.17;;;-0.40;99.90;;;;;;4936287;28;20131;-88
2023/01/21 05:55:41;;;;;;;2.20;1.60;;;-0.40;99.90;;;;;;4951280;28;20098;-87
2023/01/21 05:58:08;;;;;;;2.28;1.60;;;-0.40;99.90;;;;;;4936953;28;20113;-88
2023/01/21 06:00:35;;;;;;;2.22;1.60;;;-0.40;99.90;;;;;;4936583;28;20521;-88
2023/01/21 06:03:02;;;;;;;2.33;1.55;;;-0.50;99.90;;;;;;4933537;28;20050;-88
2023/01/21 06:05:29;;;;;;;2.40;1.48;;;-0.50;99.90;;;;;;4933212;28;20051;-87
2023/01/21 06:07:56;;;;;;;2.75;1.60;;;-0.40;99.90;;;;;;4934185;28;20350;-88
2023/01/21 06:10:23;;;;;;;3.13;1.90;;;-0.30;99.90;;;;;;4934741;28;20074;-89
2023/01/21 06:12:53;;;;;;;2.00;1.52;;;-0.30;99.90;;;;;;4933281;28;20149;-87
2023/01/21 06:15:20;;;;;;;2.13;1.60;;;-0.30;99.90;;;;;;4951196;28;20413;-87
2023/01/21 06:17:47;;;;;;;2.60;1.67;;;-0.30;99.90;;;;;;4949582;28;20078;-89
2023/01/21 06:20:14;;;;;;;2.47;1.50;;;-0.20;99.90;;;;;;4949512;28;20066;-89
2023/01/21 06:22:41;;;;;;;2.30;1.58;;;-0.20;99.90;;;;;;4949457;28;20065;-91
2023/01/21 06:25:09;;;;;;;2.30;1.83;;;-0.10;99.90;;;;;;4933818;28;20058;-89
2023/01/21 06:27:37;;;;;;;1.98;1.40;;;-0.10;99.90;;;;;;4934192;28;20085;-89
2023/01/21 06:30:07;;;;;;;2.95;2.05;;;-0.10;99.90;;;;;;4934637;28;20065;-88
2023/01/21 06:32:34;;;;;;;1.92;1.38;;;0.00;99.90;;;;;;4925113;28;20109;-89
2023/01/21 06:35:01;;;;;;;2.65;1.40;;;0.10;99.90;;;;;;4929766;29;20526;-89
2023/01/21 06:37:28;;;;;;;2.33;1.83;;;0.10;99.90;;;;;;4946202;29;20055;-88
2023/01/21 06:39:55;;;;;;;2.13;1.52;;;0.10;99.90;;;;;;4946353;28;20051;-88
2023/01/21 06:42:22;;;;;;;2.65;1.70;;;0.10;99.90;;;;;;4949860;28;20458;-90
2023/01/21 06:44:49;;;;;;;2.65;1.60;;;0.10;99.90;;;;;;4930482;29;20067;-88
2023/01/21 06:47:16;;;;;;;3.85;1.52;;;0.10;99.90;;;;;;4948198;28;20082;-88
2023/01/21 06:49:43;;;;;;;2.20;1.63;;;0.10;99.90;;;;;;4946292;28;20296;-91
2023/01/21 06:52:10;;;;;;;2.05;1.52;;;0.20;99.90;;;;;;4950820;28;20059;-88
2023/01/21 06:54:37;;;;;;;2.95;1.70;;;0.20;99.90;;;;;;4936651;28;20539;-87
2023/01/21 06:57:04;;;;;;;2.22;1.50;;;0.20;99.90;;;;;;4952610;28;20065;-88
2023/01/21 06:59:31;;;;;;;2.20;1.60;;;0.20;99.90;;;;;;4952866;28;20051;-87
2023/01/21 07:01:58;;;;;;;3.28;1.98;;;0.20;99.90;;;;;;4946750;28;20462;-87
2023/01/21 07:04:26;;;;;;;2.42;1.63;;;0.20;99.90;;;;;;4935380;28;20054;-88
2023/01/21 07:06:53;;;;;;;2.65;1.67;;;0.20;99.90;;;;;;4933029;29;20051;-87
2023/01/21 07:09:20;;;;;;;2.17;1.60;;;0.20;99.90;;;;;;4949934;29;20062;-87
2023/01/21 07:11:48;;;;;;;2.33;1.73;;;0.20;99.90;;;;;;4952539;28;20047;-88
2023/01/21 07:14:15;;;;;;;2.95;2.15;;;0.30;99.90;;;;;;4951079;28;20070;-87
2023/01/21 07:16:42;;;;;;;2.42;1.60;;;0.20;99.90;;;;;;4953009;28;20301;-86
2023/01/21 07:19:10;;;;;;;2.70;1.63;;;0.20;99.90;;;;;;4953070;28;20425;-84
2023/01/21 07:21:40;;;;;;;3.63;1.90;;;0.20;99.90;;;;;;4970419;28;20121;-86
2023/01/21 07:24:08;;;;;;;2.45;1.70;;;0.10;99.90;;;;;;4969546;28;20078;-85
2023/01/21 07:26:36;;;;;;;2.92;1.67;;;0.00;99.90;;;;;;4934673;29;20073;-89
2023/01/21 07:29:05;;;;;;;2.85;1.73;;;0.00;99.90;;;;;;4950131;28;20474;-84
2023/01/21 07:31:32;;;;;;;3.60;2.17;;;-0.10;99.90;;;;;;4950371;28;20055;-87
2023/01/21 07:33:59;;;;;;;3.15;2.03;;;-0.10;99.90;;;;;;4966384;28;20124;-85
2023/01/21 07:36:26;;;;;;;1.95;1.63;;;-0.20;99.90;;;;;;4947419;28;20046;-85
2023/01/21 07:38:54;;;;;;;2.88;1.98;;;-0.30;99.90;;;;;;4948457;28;20101;-86
2023/01/21 07:41:21;;;;;;;2.47;2.00;;;-0.30;99.90;;;;;;4947253;28;20059;-85
2023/01/21 07:43:48;;;;;;;2.95;1.90;;;-0.30;99.90;;;;;;4945030;28;20351;-87
2023/01/21 07:46:18;;;;;;;3.17;2.17;;;-0.30;99.90;;;;;;4943788;28;20094;-86
2023/01/21 07:48:50;;;;;;;3.53;2.30;;;-0.40;99.90;;;;;;4930047;28;20070;-85
2023/01/21 07:51:21;;;;;;;3.38;2.05;;;-0.40;99.90;;;;;;4940743;28;20129;-87
2023/01/21 07:53:49;;;;;;;2.90;2.08;;;-0.40;99.90;;;;;;4953883;28;20515;-87
2023/01/21 07:56:17;;;;;;;2.90;1.90;;;-0.40;99.90;;;;;;4927719;29;20165;-88
2023/01/21 07:58:45;;;;;;;2.35;1.88;;;-0.50;99.90;;;;;;4936039;28;20078;-86
2023/01/21 08:01:13;;;;;;;3.70;2.53;;;-0.50;99.90;;;;;;4961355;28;20051;-88
2023/01/21 08:03:40;;;;;;;3.13;2.20;;;-0.50;99.90;;;;;;4938879;28;20137;-87
2023/01/21 08:06:07;;;;;;;2.30;1.60;;;-0.50;99.90;;;;;;4958088;28;20055;-87
2023/01/21 08:08:34;;;;;;;3.38;2.10;;;-0.60;99.90;;;;;;4937885;28;20057;-88
2023/01/21 08:11:01;;;;;;;3.08;2.10;;;-0.60;99.90;;;;;;4942604;28;20047;-85
2023/01/21 08:13:28;;;;;;;3.03;2.05;;;-0.70;99.90;;;;;;4935358;28;20164;-87
2023/01/21 08:15:56;;;;;;;2.33;1.85;;;-0.70;99.90;;;;;;4955838;28;20047;-87
2023/01/21 08:18:23;;;;;;;2.53;1.80;;;-0.70;99.90;;;;;;4943830;28;20062;-86
2023/01/21 08:20:57;;;;;;;2.30;1.40;;;-0.70;99.90;;;;;;4943981;28;20130;-86
2023/01/21 08:23:36;;;;;;;4.35;2.22;;;-0.70;99.90;;;;;;4942189;28;20055;-89
2023/01/21 08:26:17;;;;;;;2.90;2.10;;;-0.70;99.90;;;;;;4927831;28;20114;-92
2023/01/21 08:29:13;;;;;;;2.47;1.67;;;-0.60;99.90;;;;;;4947919;28;20058;-88
2023/01/21 08:31:43;;;;;;;2.45;1.67;;;-0.50;99.90;;;;;;4966295;28;20081;-86
2023/01/21 08:34:10;;;;;;;3.03;1.88;;;-0.50;99.90;;;;;;4930595;28;20146;-87
2023/01/21 08:36:38;;;;;;;2.85;1.70;;;-0.50;99.90;;;;;;4951868;28;20050;-85
2023/01/21 08:39:05;;;;;;;2.63;1.92;;;-0.40;99.90;;;;;;4941450;28;20681;-85
2023/01/21 08:41:32;;;;;;;3.45;2.20;;;-0.40;99.90;;;;;;4923998;28;20051;-86
2023/01/21 08:43:59;;;;;;;3.28;1.98;;;-0.40;99.90;;;;;;4937748;28;20061;-84
2023/01/21 08:46:26;;;;;;;3.92;2.38;;;-0.40;99.90;;;;;;4923625;28;20074;-84
2023/01/21 08:48:53;;;;;;;3.70;2.30;;;-0.40;99.90;;;;;;4916450;28;20055;-84
2023/01/21 08:51:20;;;;;;;4.20;2.60;;;-0.40;99.90;;;;;;4943978;28;20336;-85
2023/01/21 08:53:50;;;;;;;3.35;2.47;;;-0.40;99.90;;;;;;4960824;28;20200;-84
2023/01/21 08:56:17;;;;;;;3.55;2.47;;;-0.40;99.90;;;;;;4956587;28;20075;-86
2023/01/21 08:58:44;;;;;;;2.97;2.15;;;-0.40;99.90;;;;;;4956335;28;20051;-85
2023/01/21 09:01:14;;;;;;;3.72;2.38;;;-0.40;99.90;;;;;;4959040;28;20522;-84
2023/01/21 09:03:41;;;;;;;3.05;2.17;;;-0.40;99.90;;;;;;4927609;29;20082;-85
2023/01/21 09:06:09;;;;;;;3.65;2.38;;;-0.40;99.90;;;;;;4912324;29;20141;-86
2023/01/21 09:08:36;;;;;;;2.58;1.80;;;-0.30;99.90;;;;;;4944588;29;20067;-85
2023/01/21 09:11:05;;;;;;;3.40;2.00;;;-0.30;99.90;;;;;;4956057;28;20088;-85
2023/01/21 09:13:37;;;;;;;3.10;2.63;;;-0.30;99.90;;;;;;4930282;28;20154;-84
2023/01/21 09:16:17;;;;;;;2.90;1.85;;;-0.30;99.90;;;;;;4961521;28;20057;-83
2023/01/21 09:18:45;;;;;;;2.45;2.03;;;-0.20;99.90;;;;;;4929560;28;20225;-84
2023/01/21 09:21:12;;;;;;;2.58;1.70;;;-0.20;99.90;;;;;;4930001;28;20055;-84
2023/01/21 09:23:39;;;;;;;3.25;1.92;;;-0.20;99.90;;;;;;4948288;28;20066;-85
2023/01/21 09:26:16;;;;;;;2.15;1.60;;;-0.20;99.90;;;;;;4944480;28;20225;-85
2023/01/21 09:28:45;;;;;;;2.65;1.83;;;-0.10;99.90;;;;;;4959279;28;20617;-85
2023/01/21 09:31:16;;;;;;;3.00;1.67;;;-0.10;99.90;;;;;;4941259;28;20062;-85
2023/01/21 09:33:45;;;;;;;2.03;1.60;;;0.00;99.90;;;;;;4940576;28;20135;-87
2023/01/21 09:36:23;;;;;;;2.28;1.60;;;0.00;99.90;;;;;;4927823;28;20047;-87
2023/01/21 09:38:53;;;;;;;3.28;2.10;;;0.10;99.90;;;;;;4945086;28;20054;-88
2023/01/21 09:41:32;;;;;;;2.67;1.90;;;0.10;99.90;;;;;;4942694;28;20172;-87
2023/01/21 09:44:27;;;;;;;2.25;1.65;;;0.20;99.90;;;;;;4960217;28;20047;-88
2023/01/21 09:47:24;;;;;;;2.92;1.90;;;0.20;99.90;;;;;;4967732;28;20054;-89
2023/01/21 09:49:53;;;;;;;2.92;1.80;;;0.30;99.90;;;;;;4965919;28;20236;-87
2023/01/21 09:52:39;;;;;;;1.75;1.40;;;0.30;99.90;;;;;;4926120;28;20114;-86
2023/01/21 09:55:22;;;;;;;2.30;1.70;;;0.30;99.90;;;;;;4960581;28;20557;-87
2023/01/21 09:58:13;;;;;;;1.85;1.40;;;0.40;99.90;;;;;;4962587;28;20082;-89
2023/01/21 10:00:57;;;;;;;3.85;1.92;;;0.50;99.90;;;;;;4963121;28;20278;-86
2023/01/21 10:03:36;;;;;;;2.55;1.80;;;0.60;99.90;;;;;;4964250;28;20270;-87
2023/01/21 10:06:18;;;;;;;2.85;1.80;;;0.80;99.90;;;;;;4953870;28;20084;-84
2023/01/21 10:09:11;;;;;;;2.50;1.77;;;0.80;99.90;;;;;;4935300;29;20055;-85
2023/01/21 10:11:48;;;;;;;2.67;1.67;;;0.90;99.90;;;;;;4942242;28;20206;-86
2023/01/21 10:14:33;;;;;;;2.90;1.92;;;1.00;99.90;;;;;;4953019;28;20057;-88
2023/01/21 10:17:19;;;;;;;3.03;2.38;;;1.10;99.90;;;;;;4941543;28;20047;-88
2023/01/21 10:19:50;;;;;;;3.47;2.00;;;1.20;99.90;;;;;;4970068;28;20046;-87
2023/01/21 10:22:28;;;;;;;2.50;1.77;;;1.30;99.90;;;;;;4956115;28;20058;-85
2023/01/21 10:24:59;;;;;;;3.22;1.75;;;1.40;99.90;;;;;;4927097;28;20055;-86
2023/01/21 10:27:26;;;;;;;3.83;1.90;;;1.50;99.90;;;;;;4958346;28;20059;-85
2023/01/21 10:29:55;;;;;;;2.70;1.85;;;1.50;99.90;;;;;;4943105;28;20050;-86
2023/01/21 10:32:24;;;;;;;3.70;2.15;;;1.50;99.90;;;;;;4939380;28;20059;-87
2023/01/21 10:34:52;;;;;;;2.95;2.15;;;1.60;99.90;;;;;;4928296;28;20067;-86
2023/01/21 10:37:31;;;;;;;4.53;2.40;;;1.60;99.90;;;;;;4959452;28;20074;-87
2023/01/21 10:40:04;;;;;;;3.85;2.38;;;1.70;99.90;;;;;;4969408;28;20051;-85
2023/01/21 10:42:44;;;;;;;2.42;1.48;;;1.70;99.90;;;;;;4963529;28;20082;-86
2023/01/21 10:45:29;;;;;;;3.40;1.88;;;1.80;99.90;;;;;;4958709;28;20067;-93
2023/01/21 10:48:20;;;;;;;3.50;2.22;;;1.80;99.90;;;;;;4944684;28;20078;-88
2023/01/21 10:50:57;;;;;;;3.38;2.30;;;1.90;99.90;;;;;;4924855;28;20208;-87
2023/01/21 10:53:45;;;;;;;2.92;2.00;;;2.00;99.90;;;;;;4958129;28;20114;-87
2023/01/21 10:56:46;;;;;;;3.90;2.90;;;2.00;99.90;;;;;;4946744;28;20039;-86
2023/01/21 10:59:20;;;;;;;5.40;3.65;;;2.10;99.90;;;;;;4962600;28;20058;-88
2023/01/21 11:02:12;;;;;;;4.43;3.38;;;2.30;99.90;;;;;;4957652;28;20562;-86
2023/01/21 11:04:39;;;;;;;5.13;3.65;;;2.30;99.90;;;;;;4945139;28;20065;-86
2023/01/21 11:07:11;;;;;;;3.83;2.70;;;2.40;99.90;;;;;;4937913;28;20046;-86
2023/01/21 11:09:41;;;;;;;4.95;2.92;;;2.50;99.90;;;;;;4958692;28;20513;-87
2023/01/21 11:12:09;;;;;;;4.20;3.00;;;2.60;99.90;;;;;;4958268;28;20055;-87
2023/01/21 11:14:36;;;;;;;4.40;3.38;;;2.60;99.90;;;;;;4945250;28;20059;-88
2023/01/21 11:17:04;;;;;;;4.55;2.80;;;2.70;99.90;;;;;;4958075;28;20094;-88
2023/01/21 11:19:43;;;;;;;5.30;3.58;;;2.80;99.90;;;;;;4937032;28;20204;-92
2023/01/21 11:22:26;;;;;;;5.40;3.30;;;2.80;99.90;;;;;;4965169;28;20043;-86
2023/01/21 11:24:53;;;;;;;4.93;3.42;;;3.00;99.90;;;;;;4929738;28;20050;-87
2023/01/21 11:27:21;;;;;;;5.07;3.60;;;3.10;99.90;;;;;;4929890;28;20134;-87
2023/01/21 11:29:49;;;;;;;5.47;4.03;;;3.10;99.90;;;;;;4956743;28;20059;-87
2023/01/21 11:32:21;;;;;;;5.30;3.60;;;3.20;99.90;;;;;;4943306;28;20291;-87
2023/01/21 11:35:20;;;;;;;4.95;3.70;;;3.30;99.90;;;;;;4960667;28;20050;-92
2023/01/21 11:37:47;;;;;;;5.03;3.28;;;3.30;99.90;;;;;;4959882;28;20055;-85
2023/01/21 11:40:24;;;;;;;4.15;2.83;;;3.30;99.90;;;;;;4938394;28;20034;-87
2023/01/21 11:42:55;;;;;;;3.85;2.92;;;3.40;99.90;;;;;;4954024;28;20051;-85
2023/01/21 11:45:30;;;;;;;3.92;2.47;;;3.50;99.90;;;;;;4924370;28;20070;-85
2023/01/21 11:47:57;;;;;;;5.60;4.18;;;3.60;99.90;;;;;;4954659;28;20082;-87
2023/01/21 11:50:44;;;;;;;5.68;3.60;;;3.60;99.90;;;;;;4937766;28;20110;-88
2023/01/21 11:53:16;;;;;;;5.43;3.55;;;3.80;99.90;;;;;;4959507;28;20070;-87
2023/01/21 11:55:51;;;;;;;4.57;3.38;;;3.80;99.90;;;;;;4941097;28;20055;-88
2023/01/21 11:58:27;;;;;;;4.82;3.35;;;3.80;99.90;;;;;;4946417;28;20137;-86
2023/01/21 12:00:58;;;;;;;4.07;3.10;;;4.00;99.90;;;;;;4956689;28;20065;-86
2023/01/21 12:03:37;;;;;;;4.32;3.08;;;4.00;99.90;;;;;;4960017;28;20093;-86
2023/01/21 12:06:04;;;;;;;5.00;3.20;;;4.10;99.90;;;;;;4956749;28;20405;-86
2023/01/21 12:08:33;;;;;;;4.03;2.88;;;4.20;99.90;;;;;;4944810;28;20124;-86
2023/01/21 12:11:03;;;;;;;3.17;2.47;;;4.30;99.90;;;;;;4958522;28;20082;-86
2023/01/21 12:14:02;;;;;;;3.58;2.65;;;4.50;99.90;;;;;;4945998;28;20055;-87
2023/01/21 12:17:10;;;;;;;3.67;2.60;;;4.70;99.90;;;;;;4951865;28;20082;-86
2023/01/21 12:19:47;;;;;;;5.00;3.72;;;5.00;99.90;;;;;;4940838;28;20185;-87
2023/01/21 12:22:17;;;;;;;5.65;4.25;;;5.10;99.90;;;;;;4958796;28;20310;-86
2023/01/21 12:24:48;;;;;;;5.20;3.90;;;5.30;99.90;;;;;;4958477;28;20509;-88
2023/01/21 12:27:30;;;;;;;5.40;4.18;;;5.50;99.90;;;;;;4947309;28;20047;-89
2023/01/21 12:30:14;;;;;;;4.88;4.10;;;5.70;99.90;;;;;;4953602;28;20128;-88
2023/01/21 12:32:55;;;;;;;4.70;3.22;;;5.90;99.90;;;;;;4960038;28;20075;-96
2023/01/21 12:35:27;;;;;;;5.30;3.50;;;6.20;99.90;;;;;;4947223;28;20062;-86
2023/01/21 12:38:02;;;;;;;4.07;3.22;;;6.30;99.90;;;;;;4964356;28;20501;-92
2023/01/21 12:40:30;;;;;;;4.60;3.58;;;6.40;99.90;;;;;;4952256;28;20050;-88
2023/01/21 12:43:00;;;;;;;3.67;2.80;;;6.50;99.90;;;;;;4950684;28;20058;-88
2023/01/21 12:45:35;;;;;;;4.18;3.17;;;6.60;99.90;;;;;;4939528;28;20046;-89
2023/01/21 12:50:55;;;;;;;3.13;2.70;;;7.30;99.90;;;;;;5036698;23;20135;-87
2023/01/21 12:53:23;;;;;;;3.80;3.33;;;7.40;99.90;;;;;;4995680;28;20078;-87
2023/01/21 12:56:06;;;;;;;4.13;3.35;;;7.50;99.90;;;;;;5000984;28;20076;-81
2023/01/21 12:58:42;;;;;;;3.85;2.97;;;7.60;99.90;;;;;;5001188;28;20133;-80
2023/01/21 13:01:14;;;;;;;4.03;3.17;;;7.60;99.90;;;;;;4987633;28;20056;-83
2023/01/21 13:03:58;;;;;;;4.07;3.10;;;7.90;99.90;;;;;;5017062;28;20124;-84
2023/01/21 13:06:34;;;;;;;4.28;3.17;;;8.10;99.90;;;;;;5006732;28;20050;-84
2023/01/21 13:09:31;;;;;;;;;;;8.00;99.90;;;;;;5012602;28;20103;-82
2023/01/21 13:12:24;;;;;;;3.92;3.13;;;8.10;99.90;;;;;;5031346;28;19929;-82
2023/01/21 13:15:26;;;;;;;3.43;2.90;;;8.20;99.90;;;;;;5018782;28;20061;-81
2023/01/21 13:17:57;;;;;;;3.22;2.75;;;8.20;99.90;;;;;;5005291;28;20037;-82
2023/01/21 13:20:24;;;;;;;2.30;1.95;;;8.50;99.90;;;;;;5016952;28;20050;-82
2023/01/21 13:22:59;;;;;;;4.35;2.85;;;8.70;99.90;;;;;;5001196;28;20153;-83
2023/01/21 13:25:35;;;;;;;3.30;2.92;;;8.90;99.90;;;;;;5017328;28;20049;-83
2023/01/21 13:28:10;;;;;;;3.28;2.35;;;9.00;99.90;;;;;;5015597;28;20049;-82
2023/01/21 13:30:49;;;;;;;3.55;3.25;;;8.80;99.90;;;;;;5007921;28;20125;-83